createdAt,value
2019-05-14T00:00:18.594Z,6.80
2019-05-14T00:02:47.204Z,6.80
2019-05-14T00:05:16.064Z,6.80
2019-05-14T00:07:44.809Z,6.80
2019-05-14T00:10:13.592Z,6.80
2019-05-14T00:12:42.271Z,6.90
2019-05-14T00:15:11.238Z,6.80
2019-05-14T00:17:41.630Z,6.80
2019-05-14T00:20:13.247Z,6.80
2019-05-14T00:22:41.719Z,6.90
2019-05-14T00:25:11.763Z,6.90
2019-05-14T00:27:41.447Z,6.80
2019-05-14T00:30:11.599Z,6.90
2019-05-14T00:32:41.446Z,6.80
2019-05-14T00:35:11.721Z,6.90
2019-05-14T00:37:41.479Z,6.90
2019-05-14T00:40:11.789Z,6.80
2019-05-14T00:42:41.413Z,6.80
2019-05-14T00:45:11.715Z,6.80
2019-05-14T00:47:41.829Z,6.90
2019-05-14T00:50:11.470Z,6.80
2019-05-14T00:52:42.486Z,6.80
2019-05-14T00:55:11.755Z,6.80
2019-05-14T00:57:42.621Z,6.80
2019-05-14T01:00:11.666Z,6.80
2019-05-14T01:02:41.581Z,6.80
2019-05-14T01:05:12.474Z,6.80
2019-05-14T01:07:42.293Z,6.80
2019-05-14T01:10:11.763Z,6.80
2019-05-14T01:12:41.520Z,6.90
2019-05-14T01:15:13.919Z,6.90
2019-05-14T01:17:42.195Z,6.80
2019-05-14T01:20:12.360Z,6.80
2019-05-14T01:22:42.240Z,6.80
2019-05-14T01:25:12.034Z,6.80
2019-05-14T01:27:41.454Z,6.90
2019-05-14T01:30:12.511Z,6.80
2019-05-14T01:32:42.028Z,6.80
2019-05-14T01:35:12.007Z,6.80
2019-05-14T01:37:41.659Z,6.80
2019-05-14T01:40:11.543Z,6.80
2019-05-14T01:42:41.558Z,6.80
2019-05-14T01:45:24.471Z,6.90
2019-05-14T01:47:41.590Z,6.90
2019-05-14T01:50:11.299Z,6.90
2019-05-14T01:52:41.593Z,6.90
2019-05-14T01:55:11.445Z,6.90
2019-05-14T01:57:42.282Z,6.90
2019-05-14T02:00:11.619Z,6.90
2019-05-14T02:02:41.753Z,7.00
2019-05-14T02:05:12.433Z,7.00
2019-05-14T02:07:42.079Z,6.90
2019-05-14T02:10:11.764Z,7.00
2019-05-14T02:12:42.420Z,7.00
2019-05-14T02:15:12.008Z,7.00
2019-05-14T02:17:41.534Z,7.10
2019-05-14T02:20:12.577Z,7.00
2019-05-14T02:22:41.721Z,7.00
2019-05-14T02:25:11.670Z,7.10
2019-05-14T02:27:41.345Z,7.10
2019-05-14T02:30:10.698Z,7.10
2019-05-14T02:32:40.685Z,7.10
2019-05-14T02:35:10.331Z,7.10
2019-05-14T02:37:40.450Z,7.10
2019-05-14T02:40:10.022Z,7.10
2019-05-14T02:42:40.148Z,7.20
2019-05-14T02:45:09.595Z,7.20
2019-05-14T02:47:39.806Z,7.20
2019-05-14T02:50:09.998Z,7.20
2019-05-14T02:52:40.239Z,7.20
2019-05-14T02:55:09.972Z,7.30
2019-05-14T02:57:39.451Z,7.30
2019-05-14T03:00:10.079Z,7.30
2019-05-14T03:02:40.272Z,7.30
2019-05-14T03:05:09.944Z,7.30
2019-05-14T03:07:39.644Z,7.30
2019-05-14T03:10:09.920Z,7.30
2019-05-14T03:12:39.888Z,7.30
2019-05-14T03:15:09.972Z,7.30
2019-05-14T03:17:40.436Z,7.40
2019-05-14T03:20:10.391Z,7.40
2019-05-14T03:22:53.470Z,7.40
2019-05-14T03:25:10.281Z,7.40
2019-05-14T03:27:40.555Z,7.40
2019-05-14T03:30:12.695Z,7.40
2019-05-14T03:32:42.561Z,7.40
2019-05-14T03:35:13.294Z,7.50
2019-05-14T03:37:41.336Z,7.50
2019-05-14T03:40:10.228Z,7.50
2019-05-14T03:42:40.068Z,7.50
2019-05-14T03:45:09.325Z,7.50
2019-05-14T03:47:39.349Z,7.50
2019-05-14T03:50:10.248Z,7.60
2019-05-14T03:52:40.080Z,7.60
2019-05-14T03:55:09.912Z,7.50
2019-05-14T03:57:39.846Z,7.50
2019-05-14T04:00:10.497Z,7.50
2019-05-14T04:02:39.453Z,7.60
2019-05-14T04:05:09.483Z,7.50
2019-05-14T04:07:39.644Z,7.50
2019-05-14T04:10:10.280Z,7.50
2019-05-14T04:12:42.097Z,7.50
2019-05-14T04:15:11.564Z,7.60
2019-05-14T04:17:42.515Z,7.50
2019-05-14T04:20:11.738Z,7.50
2019-05-14T04:22:41.002Z,7.60
2019-05-14T04:25:11.457Z,7.60
2019-05-14T04:27:40.739Z,7.50
2019-05-14T04:30:10.599Z,7.50
2019-05-14T04:32:41.009Z,7.50
2019-05-14T04:35:09.890Z,7.50
2019-05-14T04:37:39.979Z,7.50
2019-05-14T04:40:10.193Z,7.60
2019-05-14T04:42:40.077Z,7.60
2019-05-14T04:45:10.981Z,7.60
2019-05-14T04:47:42.222Z,7.70
2019-05-14T04:50:10.934Z,7.70
2019-05-14T04:52:40.497Z,7.70
2019-05-14T04:55:10.118Z,7.70
2019-05-14T04:57:39.527Z,7.70
2019-05-14T05:00:12.380Z,7.70
2019-05-14T05:02:39.987Z,7.70
2019-05-14T05:05:09.645Z,7.70
2019-05-14T05:07:40.244Z,7.70
2019-05-14T05:10:10.223Z,7.80
2019-05-14T05:12:39.125Z,7.70
2019-05-14T05:15:09.276Z,7.70
2019-05-14T05:17:47.172Z,7.70
2019-05-14T05:20:09.818Z,7.70
2019-05-14T05:22:39.643Z,7.70
2019-05-14T05:25:08.769Z,7.80
2019-05-14T05:27:38.175Z,7.70
2019-05-14T05:30:08.494Z,7.70
2019-05-14T05:32:38.962Z,7.70
2019-05-14T05:35:09.441Z,7.70
2019-05-14T05:37:38.718Z,7.70
2019-05-14T05:40:09.135Z,7.60
2019-05-14T05:42:38.679Z,7.60
2019-05-14T05:45:08.627Z,7.60
2019-05-14T05:47:39.059Z,7.70
2019-05-14T05:50:08.810Z,7.70
2019-05-14T05:52:38.743Z,7.70
2019-05-14T05:55:08.921Z,7.70
2019-05-14T05:57:39.362Z,7.80
2019-05-14T06:00:09.637Z,7.90
2019-05-14T06:02:39.856Z,7.90
2019-05-14T06:05:08.888Z,7.90
2019-05-14T06:07:39.398Z,8.00
2019-05-14T06:10:09.069Z,7.90
2019-05-14T06:12:38.921Z,8.10
2019-05-14T06:15:08.692Z,8.10
2019-05-14T06:17:39.158Z,8.20
2019-05-14T06:20:08.548Z,8.20
2019-05-14T06:22:38.474Z,8.30
2019-05-14T06:25:11.038Z,8.30
2019-05-14T06:27:38.285Z,8.40
2019-05-14T06:30:09.089Z,8.30
2019-05-14T06:32:38.594Z,8.10
2019-05-14T06:35:08.803Z,8.00
2019-05-14T06:37:38.478Z,8.00
2019-05-14T06:40:08.967Z,8.10
2019-05-14T06:42:39.433Z,8.20
2019-05-14T06:45:09.125Z,8.10
2019-05-14T06:47:38.377Z,8.20
2019-05-14T06:50:08.475Z,8.30
2019-05-14T06:52:38.660Z,8.40
2019-05-14T06:55:08.979Z,8.30
2019-05-14T06:57:39.476Z,8.30
2019-05-14T07:00:09.158Z,8.40
2019-05-14T07:02:43.331Z,8.40
2019-05-14T07:05:08.591Z,8.30
2019-05-14T07:07:40.162Z,8.40
2019-05-14T07:10:09.020Z,8.40
2019-05-14T07:12:38.782Z,8.50
2019-05-14T07:15:09.360Z,8.50
2019-05-14T07:17:38.625Z,8.40
2019-05-14T07:20:09.302Z,8.20
2019-05-14T07:22:39.024Z,8.40
2019-05-14T07:25:09.768Z,8.60
2019-05-14T07:27:39.340Z,8.70
2019-05-14T07:30:10.037Z,8.50
2019-05-14T07:32:39.494Z,8.60
2019-05-14T07:35:09.497Z,8.80
2019-05-14T07:37:39.599Z,8.90
2019-05-14T07:40:09.009Z,8.80
2019-05-14T07:42:38.344Z,8.90
2019-05-14T07:45:09.559Z,8.50
2019-05-14T07:47:39.032Z,8.60
2019-05-14T07:50:08.941Z,8.90
2019-05-14T07:52:45.264Z,8.90
2019-05-14T07:55:09.283Z,8.90
2019-05-14T07:57:39.319Z,8.90
2019-05-14T08:00:11.147Z,8.80
2019-05-14T08:02:40.072Z,8.90
2019-05-14T08:05:10.415Z,9.00
2019-05-14T08:07:39.220Z,8.90
2019-05-14T08:10:09.897Z,8.70
2019-05-14T08:12:39.307Z,9.00
2019-05-14T08:15:18.326Z,9.00
2019-05-14T08:17:39.307Z,8.90
2019-05-14T08:20:10.127Z,9.10
2019-05-14T08:22:38.839Z,9.20
2019-05-14T08:25:09.845Z,9.20
2019-05-14T08:27:39.018Z,9.20
2019-05-14T08:30:10.336Z,9.10
2019-05-14T08:32:39.242Z,9.20
2019-05-14T08:35:09.166Z,9.00
2019-05-14T08:37:38.696Z,9.00
2019-05-14T08:40:09.732Z,9.20
2019-05-14T08:42:38.657Z,9.60
2019-05-14T08:45:13.696Z,9.40
2019-05-14T08:47:40.008Z,9.50
2019-05-14T08:50:10.031Z,9.70
2019-05-14T08:52:39.209Z,11.10
2019-05-14T08:55:11.106Z,10.60
2019-05-14T08:57:39.079Z,10.80
2019-05-14T09:00:13.885Z,10.80
2019-05-14T09:02:39.303Z,11.00
2019-05-14T09:05:10.322Z,11.10
2019-05-14T09:07:39.247Z,10.60
2019-05-14T09:10:08.846Z,10.40
2019-05-14T09:12:38.851Z,10.50
2019-05-14T09:15:09.765Z,10.00
2019-05-14T09:17:39.208Z,9.70
2019-05-14T09:20:11.421Z,9.50
2019-05-14T09:22:40.020Z,9.80
2019-05-14T09:25:09.247Z,9.80
2019-05-14T09:27:38.716Z,9.40
2019-05-14T09:30:10.041Z,9.60
2019-05-14T09:32:39.081Z,9.90
2019-05-14T09:35:09.716Z,10.40
2019-05-14T09:37:39.649Z,10.20
2019-05-14T09:40:09.161Z,10.30
2019-05-14T09:42:39.268Z,10.30
2019-05-14T09:45:11.060Z,9.80
2019-05-14T09:47:39.718Z,9.90
2019-05-14T09:50:22.046Z,10.10
2019-05-14T09:52:39.606Z,9.90
2019-05-14T09:55:09.361Z,9.80
2019-05-14T09:57:38.940Z,9.80
2019-05-14T10:00:09.276Z,10.20
2019-05-14T10:02:39.325Z,10.50
2019-05-14T10:05:09.204Z,10.40
2019-05-14T10:07:39.161Z,10.80
2019-05-14T10:10:08.426Z,10.60
2019-05-14T10:12:44.746Z,10.80
2019-05-14T10:15:08.833Z,10.60
2019-05-14T10:17:39.324Z,10.50
2019-05-14T10:20:09.040Z,10.70
2019-05-14T10:22:39.856Z,10.50
2019-05-14T10:25:09.232Z,10.20
2019-05-14T10:27:40.915Z,10.40
2019-05-14T10:30:10.670Z,9.80
2019-05-14T10:32:41.267Z,9.70
2019-05-14T10:35:09.988Z,9.80
2019-05-14T10:37:40.074Z,9.90
2019-05-14T10:40:10.422Z,9.80
2019-05-14T10:42:40.465Z,10.00
2019-05-14T10:45:12.739Z,10.10
2019-05-14T10:47:40.175Z,9.90
2019-05-14T10:50:13.917Z,9.80
2019-05-14T10:52:39.716Z,9.30
2019-05-14T10:55:08.975Z,9.70
2019-05-14T10:57:37.594Z,9.50
2019-05-14T11:00:08.964Z,9.40
2019-05-14T11:02:38.821Z,9.70
2019-05-14T11:05:07.967Z,9.80
2019-05-14T11:07:41.415Z,9.40
2019-05-14T11:10:09.261Z,9.60
2019-05-14T11:12:39.643Z,9.80
2019-05-14T11:15:10.120Z,9.80
2019-05-14T11:17:40.747Z,10.00
2019-05-14T11:20:09.667Z,9.70
2019-05-14T11:22:38.321Z,9.80
2019-05-14T11:25:09.280Z,9.30
2019-05-14T11:27:38.930Z,9.60
2019-05-14T11:30:09.203Z,9.40
2019-05-14T11:32:38.573Z,9.50
2019-05-14T11:35:12.909Z,9.20
2019-05-14T11:37:41.491Z,9.40
2019-05-14T11:40:10.097Z,10.00
2019-05-14T11:42:39.011Z,9.90
2019-05-14T11:45:09.094Z,9.80
2019-05-14T11:47:38.082Z,9.90
2019-05-14T11:50:09.893Z,10.10
2019-05-14T11:52:38.852Z,9.80
2019-05-14T11:55:09.136Z,9.70
2019-05-14T11:57:38.040Z,9.80
2019-05-14T12:00:09.950Z,9.90
2019-05-14T12:02:38.745Z,10.00
2019-05-14T12:05:09.030Z,10.10
2019-05-14T12:07:38.855Z,9.90
2019-05-14T12:10:09.076Z,10.00
2019-05-14T12:12:39.420Z,9.90
2019-05-14T12:15:09.013Z,9.80
2019-05-14T12:17:39.424Z,9.60
2019-05-14T12:20:10.238Z,9.60
2019-05-14T12:22:39.500Z,9.70
2019-05-14T12:25:08.701Z,9.90
2019-05-14T12:27:38.827Z,9.70
2019-05-14T12:30:09.722Z,9.70
2019-05-14T12:32:39.827Z,9.80
2019-05-14T12:35:08.824Z,9.90
2019-05-14T12:37:38.806Z,9.70
2019-05-14T12:40:08.768Z,10.00
2019-05-14T12:42:39.114Z,10.00
2019-05-14T12:45:10.287Z,10.00
2019-05-14T12:47:39.023Z,9.90
2019-05-14T12:50:09.498Z,10.00
2019-05-14T12:52:38.886Z,9.90
2019-05-14T12:55:09.734Z,10.00
2019-05-14T12:57:39.384Z,10.10
2019-05-14T13:00:09.812Z,10.00
2019-05-14T13:02:38.535Z,10.00
2019-05-14T13:05:09.049Z,10.20
2019-05-14T13:07:41.442Z,10.10
2019-05-14T13:10:09.342Z,9.90
2019-05-14T13:12:39.227Z,9.90
2019-05-14T13:15:08.955Z,10.10
2019-05-14T13:17:38.795Z,9.80
2019-05-14T13:20:13.661Z,9.80
2019-05-14T13:22:46.103Z,9.60
2019-05-14T13:25:11.192Z,9.60
2019-05-14T13:27:40.108Z,9.50
2019-05-14T13:30:09.340Z,9.60
2019-05-14T13:32:39.490Z,9.60
2019-05-14T13:35:13.302Z,9.50
2019-05-14T13:37:39.986Z,9.40
2019-05-14T13:40:10.031Z,9.40
2019-05-14T13:42:44.154Z,9.50
2019-05-14T13:45:11.165Z,9.50
2019-05-14T13:47:39.857Z,9.60
2019-05-14T13:50:08.894Z,9.70
2019-05-14T13:52:40.413Z,9.70
2019-05-14T13:55:09.577Z,9.70
2019-05-14T13:57:39.889Z,9.50
2019-05-14T14:00:11.702Z,9.40
2019-05-14T14:02:40.186Z,9.40
2019-05-14T14:05:09.884Z,9.50
2019-05-14T14:07:39.524Z,9.40
2019-05-14T14:10:09.416Z,9.70
2019-05-14T14:12:40.466Z,9.90
2019-05-14T14:15:09.880Z,9.70
2019-05-14T14:17:39.584Z,9.90
2019-05-14T14:20:10.223Z,9.70
2019-05-14T14:22:40.110Z,9.60
2019-05-14T14:25:10.615Z,9.60
2019-05-14T14:27:41.037Z,9.60
2019-05-14T14:30:10.905Z,9.60
2019-05-14T14:32:40.662Z,9.60
2019-05-14T14:35:10.650Z,9.50
2019-05-14T14:37:40.145Z,9.60
2019-05-14T14:40:10.864Z,9.60
2019-05-14T14:42:40.501Z,9.70
2019-05-14T14:45:10.809Z,9.80
2019-05-14T14:47:40.038Z,9.80
2019-05-14T14:50:09.755Z,9.80
2019-05-14T14:52:38.336Z,9.90
2019-05-14T14:55:08.946Z,9.80
2019-05-14T14:57:43.799Z,9.70
2019-05-14T15:00:11.057Z,9.70
2019-05-14T15:02:41.186Z,9.60
2019-05-14T15:05:14.113Z,9.60
2019-05-14T15:07:41.158Z,9.60
2019-05-14T15:10:10.429Z,9.70
2019-05-14T15:12:40.679Z,9.70
2019-05-14T15:15:09.962Z,9.60
2019-05-14T15:17:39.709Z,9.60
2019-05-14T15:20:10.545Z,9.70
2019-05-14T15:22:39.242Z,9.60
2019-05-14T15:25:09.116Z,9.60
2019-05-14T15:27:38.708Z,9.80
2019-05-14T15:30:08.309Z,9.90
2019-05-14T15:32:36.901Z,9.90
2019-05-14T15:35:10.686Z,9.80
2019-05-14T15:37:42.128Z,9.90
2019-05-14T15:40:09.001Z,9.80
2019-05-14T15:42:39.431Z,9.70
2019-05-14T15:45:09.345Z,9.80
2019-05-14T15:47:38.979Z,9.80
2019-05-14T15:50:09.614Z,9.80
2019-05-14T15:52:39.258Z,9.80
2019-05-14T15:55:09.677Z,9.60
2019-05-14T15:57:39.791Z,9.60
2019-05-14T16:00:10.338Z,9.60
2019-05-14T16:02:39.997Z,9.80
2019-05-14T16:05:10.170Z,9.60
2019-05-14T16:07:39.583Z,9.50
2019-05-14T16:10:08.876Z,9.70
2019-05-14T16:12:39.761Z,9.60
2019-05-14T16:15:12.917Z,9.60
2019-05-14T16:17:50.110Z,9.60
2019-05-14T16:20:13.916Z,9.60
2019-05-14T16:22:42.759Z,9.70
2019-05-14T16:25:13.072Z,9.60
2019-05-14T16:27:41.783Z,9.60
2019-05-14T16:30:14.800Z,9.60
2019-05-14T16:32:43.535Z,9.60
2019-05-14T16:35:12.429Z,9.50
2019-05-14T16:37:41.678Z,9.50
2019-05-14T16:40:11.973Z,9.40
2019-05-14T16:42:40.531Z,9.40
2019-05-14T16:45:09.617Z,9.50
2019-05-14T16:47:39.902Z,9.50
2019-05-14T16:50:09.890Z,9.60
2019-05-14T16:52:42.202Z,9.50
2019-05-14T16:55:22.990Z,9.50
2019-05-14T16:57:39.637Z,9.50
2019-05-14T17:00:09.715Z,9.50
2019-05-14T17:02:38.757Z,9.40
2019-05-14T17:05:09.217Z,9.40
2019-05-14T17:07:38.569Z,9.30
2019-05-14T17:10:08.421Z,9.40
2019-05-14T17:12:49.761Z,9.30
2019-05-14T17:15:09.573Z,9.30
2019-05-14T17:17:38.651Z,9.20
2019-05-14T17:20:08.509Z,9.30
2019-05-14T17:22:39.728Z,9.30
2019-05-14T17:25:09.552Z,9.20
2019-05-14T17:27:39.452Z,9.20
2019-05-14T17:30:09.626Z,9.20
2019-05-14T17:32:39.114Z,9.20
2019-05-14T17:35:08.808Z,9.20
2019-05-14T17:37:39.529Z,9.10
2019-05-14T17:40:09.415Z,9.20
2019-05-14T17:42:39.348Z,9.20
2019-05-14T17:45:09.638Z,9.10
2019-05-14T17:47:38.991Z,9.00
2019-05-14T17:50:08.671Z,9.00
2019-05-14T17:52:43.407Z,9.10
2019-05-14T17:55:12.128Z,9.20
2019-05-14T17:57:46.492Z,9.00
2019-05-14T18:00:09.903Z,9.00
2019-05-14T18:02:38.682Z,8.90
2019-05-14T18:05:09.494Z,9.00
2019-05-14T18:07:38.549Z,9.00
2019-05-14T18:10:08.951Z,8.90
2019-05-14T18:12:39.556Z,8.90
2019-05-14T18:15:08.915Z,8.90
2019-05-14T18:17:39.243Z,8.90
2019-05-14T18:20:08.939Z,8.70
2019-05-14T18:22:42.000Z,8.70
2019-05-14T18:25:08.301Z,8.70
2019-05-14T18:27:39.097Z,8.60
2019-05-14T18:30:09.404Z,8.60
2019-05-14T18:32:38.363Z,8.50
2019-05-14T18:35:07.198Z,8.60
2019-05-14T18:37:35.851Z,8.60
2019-05-14T18:40:09.158Z,8.60
2019-05-14T18:42:39.030Z,8.60
2019-05-14T18:45:08.839Z,8.50
2019-05-14T18:47:39.803Z,8.50
2019-05-14T18:50:09.167Z,8.50
2019-05-14T18:52:39.903Z,8.60
2019-05-14T18:55:08.729Z,8.50
2019-05-14T18:57:38.295Z,8.50
2019-05-14T19:00:09.059Z,8.50
2019-05-14T19:02:39.251Z,8.40
2019-05-14T19:05:08.707Z,8.40
2019-05-14T19:07:39.387Z,8.40
2019-05-14T19:10:09.350Z,8.40
2019-05-14T19:12:38.703Z,8.40
2019-05-14T19:15:09.150Z,8.40
2019-05-14T19:17:38.619Z,8.40
2019-05-14T19:20:08.442Z,8.40
2019-05-14T19:22:39.651Z,8.40
2019-05-14T19:25:08.250Z,8.40
2019-05-14T19:27:37.973Z,8.40
2019-05-14T19:30:08.429Z,8.30
2019-05-14T19:32:39.339Z,8.30
2019-05-14T19:35:08.749Z,8.40
2019-05-14T19:37:39.128Z,8.40
2019-05-14T19:40:09.343Z,8.30
2019-05-14T19:42:39.304Z,8.40
2019-05-14T19:45:09.550Z,8.40
2019-05-14T19:47:39.984Z,8.40
2019-05-14T19:50:09.280Z,8.40
2019-05-14T19:52:39.008Z,8.30
2019-05-14T19:55:08.264Z,8.30
2019-05-14T19:57:38.417Z,8.20
2019-05-14T20:00:09.102Z,8.20
2019-05-14T20:02:38.103Z,8.20
2019-05-14T20:05:09.806Z,8.20
2019-05-14T20:07:38.921Z,8.10
2019-05-14T20:10:09.284Z,8.00
2019-05-14T20:12:39.293Z,8.00
2019-05-14T20:15:09.466Z,7.90
2019-05-14T20:17:38.648Z,7.90
2019-05-14T20:20:10.360Z,7.80
2019-05-14T20:22:39.819Z,7.80
2019-05-14T20:25:09.285Z,7.70
2019-05-14T20:27:38.911Z,7.80
2019-05-14T20:30:10.169Z,7.70
2019-05-14T20:32:39.114Z,7.70
2019-05-14T20:35:09.714Z,7.70
2019-05-14T20:37:39.001Z,7.60
2019-05-14T20:40:08.614Z,7.60
2019-05-14T20:42:39.262Z,7.60
2019-05-14T20:45:08.163Z,7.60
2019-05-14T20:47:38.926Z,7.60
2019-05-14T20:50:08.922Z,7.60
2019-05-14T20:52:37.874Z,7.60
2019-05-14T20:55:09.570Z,7.60
2019-05-14T20:57:38.822Z,7.60
2019-05-14T21:00:11.297Z,7.60
2019-05-14T21:02:39.593Z,7.60
2019-05-14T21:05:13.424Z,7.60
2019-05-14T21:07:40.340Z,7.60
2019-05-14T21:10:09.387Z,7.60
2019-05-14T21:12:39.484Z,7.70
2019-05-14T21:15:09.224Z,7.70
2019-05-14T21:17:38.978Z,7.70
2019-05-14T21:20:09.177Z,7.70
2019-05-14T21:22:40.122Z,7.70
2019-05-14T21:25:12.558Z,7.70
2019-05-14T21:27:48.098Z,7.80
2019-05-14T21:30:10.734Z,7.70
2019-05-14T21:32:42.696Z,7.80
2019-05-14T21:35:09.982Z,7.70
2019-05-14T21:37:39.476Z,7.70
2019-05-14T21:40:09.366Z,7.70
2019-05-14T21:42:38.679Z,7.70
2019-05-14T21:45:09.813Z,7.70
2019-05-14T21:47:38.920Z,7.70
2019-05-14T21:50:09.047Z,7.70
2019-05-14T21:52:39.203Z,7.70
2019-05-14T21:55:08.783Z,7.70
2019-05-14T21:57:38.193Z,7.70
2019-05-14T22:00:29.476Z,7.70
2019-05-14T22:02:58.424Z,7.60
2019-05-14T22:05:28.420Z,7.60
2019-05-14T22:07:58.010Z,7.60
2019-05-14T22:10:28.735Z,7.60
2019-05-14T22:12:58.365Z,7.60
2019-05-14T22:15:29.269Z,7.60
2019-05-14T22:17:58.714Z,7.60
2019-05-14T22:20:28.963Z,7.70
2019-05-14T22:22:59.131Z,7.70
2019-05-14T22:25:28.608Z,7.70
2019-05-14T22:28:11.655Z,7.80
2019-05-14T22:30:28.961Z,7.80
2019-05-14T22:33:00.340Z,7.80
2019-05-14T22:35:31.129Z,7.80
2019-05-14T22:37:59.651Z,7.80
2019-05-14T22:40:29.145Z,7.80
2019-05-14T22:43:00.255Z,7.80
2019-05-14T22:45:28.489Z,7.80
2019-05-14T22:47:58.852Z,7.80
2019-05-14T22:50:29.438Z,7.80
2019-05-14T22:52:58.405Z,7.80
2019-05-14T22:55:30.966Z,7.80
2019-05-14T22:57:59.345Z,7.80
2019-05-14T23:00:28.833Z,7.80
2019-05-14T23:02:57.750Z,7.80
2019-05-14T23:05:28.768Z,7.70
2019-05-14T23:07:58.381Z,7.70
2019-05-14T23:10:27.468Z,7.70
2019-05-14T23:12:58.374Z,7.70
2019-05-14T23:15:26.277Z,7.70
2019-05-14T23:17:54.997Z,7.70
2019-05-14T23:20:23.618Z,7.70
2019-05-14T23:22:52.406Z,7.70
2019-05-14T23:25:21.081Z,7.70
2019-05-14T23:27:49.682Z,7.70
2019-05-14T23:30:32.835Z,7.70
2019-05-14T23:33:01.858Z,7.60
2019-05-14T23:35:30.950Z,7.70
2019-05-14T23:38:00.131Z,7.70
2019-05-14T23:40:29.043Z,7.60
2019-05-14T23:42:58.861Z,7.60
2019-05-14T23:45:28.495Z,7.50
2019-05-14T23:47:58.578Z,7.50
2019-05-14T23:50:28.345Z,7.50
2019-05-14T23:52:59.871Z,7.50
2019-05-14T23:55:28.904Z,7.50
2019-05-14T23:57:58.620Z,7.40
